sensor_id;sensor_type;location;lat;lon;timestamp;P1;durP1;ratioP1;P2;durP2;ratioP2
51224;SDS011;37298;42.688;23.312;2023-09-08T00:00:50;13.95;;;8.32;;
51224;SDS011;37298;42.688;23.312;2023-09-08T00:03:17;10.40;;;8.43;;
51224;SDS011;37298;42.688;23.312;2023-09-08T00:05:43;12.35;;;9.45;;
51224;SDS011;37298;42.688;23.312;2023-09-08T00:08:09;15.45;;;9.85;;
51224;SDS011;37298;42.688;23.312;2023-09-08T00:10:36;17.38;;;10.60;;
51224;SDS011;37298;42.688;23.312;2023-09-08T00:13:02;16.25;;;10.18;;
51224;SDS011;37298;42.688;23.312;2023-09-08T00:15:28;14.82;;;11.13;;
51224;SDS011;37298;42.688;23.312;2023-09-08T00:17:56;12.98;;;9.55;;
51224;SDS011;37298;42.688;23.312;2023-09-08T00:20:22;17.38;;;9.95;;
51224;SDS011;37298;42.688;23.312;2023-09-08T00:22:48;15.50;;;9.70;;
51224;SDS011;37298;42.688;23.312;2023-09-08T00:25:15;12.82;;;8.90;;
51224;SDS011;37298;42.688;23.312;2023-09-08T00:27:41;11.50;;;9.13;;
51224;SDS011;37298;42.688;23.312;2023-09-08T00:30:08;10.63;;;8.27;;
51224;SDS011;37298;42.688;23.312;2023-09-08T00:32:34;14.25;;;9.00;;
51224;SDS011;37298;42.688;23.312;2023-09-08T00:35:01;11.70;;;7.93;;
51224;SDS011;37298;42.688;23.312;2023-09-08T00:37:27;12.23;;;7.60;;
51224;SDS011;37298;42.688;23.312;2023-09-08T00:39:53;10.98;;;6.97;;
51224;SDS011;37298;42.688;23.312;2023-09-08T00:42:20;14.48;;;7.10;;
51224;SDS011;37298;42.688;23.312;2023-09-08T00:44:46;9.50;;;6.72;;
51224;SDS011;37298;42.688;23.312;2023-09-08T00:47:13;12.15;;;7.30;;
51224;SDS011;37298;42.688;23.312;2023-09-08T00:49:39;7.50;;;5.45;;
51224;SDS011;37298;42.688;23.312;2023-09-08T00:52:06;9.57;;;5.78;;
51224;SDS011;37298;42.688;23.312;2023-09-08T00:54:33;9.75;;;5.65;;
51224;SDS011;37298;42.688;23.312;2023-09-08T00:56:59;7.07;;;5.07;;
51224;SDS011;37298;42.688;23.312;2023-09-08T00:59:27;8.05;;;4.85;;
51224;SDS011;37298;42.688;23.312;2023-09-08T01:01:54;6.95;;;4.85;;
51224;SDS011;37298;42.688;23.312;2023-09-08T01:04:21;9.43;;;5.88;;
51224;SDS011;37298;42.688;23.312;2023-09-08T01:06:47;8.55;;;4.68;;
51224;SDS011;37298;42.688;23.312;2023-09-08T01:09:14;11.90;;;4.63;;
51224;SDS011;37298;42.688;23.312;2023-09-08T01:11:41;6.97;;;4.90;;
51224;SDS011;37298;42.688;23.312;2023-09-08T01:14:07;7.00;;;4.50;;
51224;SDS011;37298;42.688;23.312;2023-09-08T01:16:34;8.20;;;4.60;;
51224;SDS011;37298;42.688;23.312;2023-09-08T01:19:02;6.55;;;4.60;;
51224;SDS011;37298;42.688;23.312;2023-09-08T01:21:38;8.75;;;5.18;;
51224;SDS011;37298;42.688;23.312;2023-09-08T01:24:21;8.25;;;4.97;;
51224;SDS011;37298;42.688;23.312;2023-09-08T01:26:53;5.95;;;4.20;;
51224;SDS011;37298;42.688;23.312;2023-09-08T01:29:20;7.95;;;4.03;;
51224;SDS011;37298;42.688;23.312;2023-09-08T01:31:48;7.55;;;4.15;;
51224;SDS011;37298;42.688;23.312;2023-09-08T01:34:15;6.25;;;3.97;;
51224;SDS011;37298;42.688;23.312;2023-09-08T01:36:42;6.43;;;4.60;;
51224;SDS011;37298;42.688;23.312;2023-09-08T01:39:08;7.93;;;4.82;;
51224;SDS011;37298;42.688;23.312;2023-09-08T01:41:34;10.27;;;4.45;;
51224;SDS011;37298;42.688;23.312;2023-09-08T01:44:01;8.27;;;5.57;;
51224;SDS011;37298;42.688;23.312;2023-09-08T01:46:30;8.07;;;4.97;;
51224;SDS011;37298;42.688;23.312;2023-09-08T01:48:56;6.93;;;5.15;;
51224;SDS011;37298;42.688;23.312;2023-09-08T01:51:23;9.05;;;5.80;;
51224;SDS011;37298;42.688;23.312;2023-09-08T01:53:49;8.23;;;5.70;;
51224;SDS011;37298;42.688;23.312;2023-09-08T01:56:15;11.60;;;5.30;;
51224;SDS011;37298;42.688;23.312;2023-09-08T01:58:41;10.30;;;5.72;;
51224;SDS011;37298;42.688;23.312;2023-09-08T02:01:08;7.38;;;5.82;;
51224;SDS011;37298;42.688;23.312;2023-09-08T02:03:35;8.10;;;5.28;;
51224;SDS011;37298;42.688;23.312;2023-09-08T02:06:01;11.98;;;6.07;;
51224;SDS011;37298;42.688;23.312;2023-09-08T02:08:27;9.10;;;5.60;;
51224;SDS011;37298;42.688;23.312;2023-09-08T02:10:53;12.20;;;5.68;;
51224;SDS011;37298;42.688;23.312;2023-09-08T02:13:19;11.98;;;6.10;;
51224;SDS011;37298;42.688;23.312;2023-09-08T02:15:45;10.60;;;5.88;;
51224;SDS011;37298;42.688;23.312;2023-09-08T02:18:12;10.18;;;6.65;;
51224;SDS011;37298;42.688;23.312;2023-09-08T02:20:39;9.65;;;6.03;;
51224;SDS011;37298;42.688;23.312;2023-09-08T02:23:05;7.75;;;5.85;;
51224;SDS011;37298;42.688;23.312;2023-09-08T02:25:33;8.45;;;6.15;;
51224;SDS011;37298;42.688;23.312;2023-09-08T02:27:59;14.52;;;5.88;;
51224;SDS011;37298;42.688;23.312;2023-09-08T02:30:25;6.85;;;5.65;;
51224;SDS011;37298;42.688;23.312;2023-09-08T02:32:52;9.55;;;6.40;;
51224;SDS011;37298;42.688;23.312;2023-09-08T02:35:21;12.50;;;6.35;;
51224;SDS011;37298;42.688;23.312;2023-09-08T02:37:47;8.05;;;5.90;;
51224;SDS011;37298;42.688;23.312;2023-09-08T02:40:14;15.30;;;6.82;;
51224;SDS011;37298;42.688;23.312;2023-09-08T02:42:40;11.40;;;5.97;;
51224;SDS011;37298;42.688;23.312;2023-09-08T02:45:06;9.07;;;6.05;;
51224;SDS011;37298;42.688;23.312;2023-09-08T02:47:33;9.80;;;6.72;;
51224;SDS011;37298;42.688;23.312;2023-09-08T02:49:59;10.57;;;7.30;;
51224;SDS011;37298;42.688;23.312;2023-09-08T02:52:26;15.48;;;8.00;;
51224;SDS011;37298;42.688;23.312;2023-09-08T02:54:53;11.15;;;6.28;;
51224;SDS011;37298;42.688;23.312;2023-09-08T02:57:19;8.73;;;6.68;;
51224;SDS011;37298;42.688;23.312;2023-09-08T02:59:48;8.77;;;6.25;;
51224;SDS011;37298;42.688;23.312;2023-09-08T03:02:14;10.02;;;7.32;;
51224;SDS011;37298;42.688;23.312;2023-09-08T03:04:41;11.45;;;7.30;;
51224;SDS011;37298;42.688;23.312;2023-09-08T03:07:08;9.75;;;7.07;;
51224;SDS011;37298;42.688;23.312;2023-09-08T03:09:35;11.82;;;7.32;;
51224;SDS011;37298;42.688;23.312;2023-09-08T03:12:01;11.55;;;7.13;;
51224;SDS011;37298;42.688;23.312;2023-09-08T03:14:28;10.30;;;7.32;;
51224;SDS011;37298;42.688;23.312;2023-09-08T03:16:55;11.32;;;7.55;;
51224;SDS011;37298;42.688;23.312;2023-09-08T03:19:21;10.10;;;7.60;;
51224;SDS011;37298;42.688;23.312;2023-09-08T03:21:49;11.43;;;7.80;;
51224;SDS011;37298;42.688;23.312;2023-09-08T03:24:15;11.95;;;7.93;;
51224;SDS011;37298;42.688;23.312;2023-09-08T03:26:42;11.95;;;7.35;;
51224;SDS011;37298;42.688;23.312;2023-09-08T03:29:08;13.55;;;7.07;;
51224;SDS011;37298;42.688;23.312;2023-09-08T03:31:34;10.40;;;8.10;;
51224;SDS011;37298;42.688;23.312;2023-09-08T03:34:00;12.25;;;7.10;;
51224;SDS011;37298;42.688;23.312;2023-09-08T03:36:27;10.48;;;8.02;;
51224;SDS011;37298;42.688;23.312;2023-09-08T03:38:53;11.85;;;7.88;;
51224;SDS011;37298;42.688;23.312;2023-09-08T03:41:20;14.70;;;8.15;;
51224;SDS011;37298;42.688;23.312;2023-09-08T03:43:47;10.90;;;8.20;;
51224;SDS011;37298;42.688;23.312;2023-09-08T03:46:14;13.77;;;8.93;;
51224;SDS011;37298;42.688;23.312;2023-09-08T03:48:40;17.50;;;8.43;;
51224;SDS011;37298;42.688;23.312;2023-09-08T03:51:07;12.13;;;8.02;;
51224;SDS011;37298;42.688;23.312;2023-09-08T03:53:33;14.45;;;8.57;;
51224;SDS011;37298;42.688;23.312;2023-09-08T03:55:59;16.08;;;8.30;;
51224;SDS011;37298;42.688;23.312;2023-09-08T03:58:25;12.60;;;8.00;;
51224;SDS011;37298;42.688;23.312;2023-09-08T04:00:52;10.75;;;8.40;;
51224;SDS011;37298;42.688;23.312;2023-09-08T04:03:18;12.40;;;8.35;;
51224;SDS011;37298;42.688;23.312;2023-09-08T04:05:45;16.52;;;9.15;;
51224;SDS011;37298;42.688;23.312;2023-09-08T04:08:11;11.10;;;7.53;;
51224;SDS011;37298;42.688;23.312;2023-09-08T04:10:37;13.68;;;8.25;;
51224;SDS011;37298;42.688;23.312;2023-09-08T04:13:04;12.50;;;8.23;;
51224;SDS011;37298;42.688;23.312;2023-09-08T04:15:30;11.45;;;7.47;;
51224;SDS011;37298;42.688;23.312;2023-09-08T04:17:57;13.38;;;8.55;;
51224;SDS011;37298;42.688;23.312;2023-09-08T04:20:24;12.05;;;9.40;;
51224;SDS011;37298;42.688;23.312;2023-09-08T04:22:51;10.25;;;8.48;;
51224;SDS011;37298;42.688;23.312;2023-09-08T04:25:17;11.57;;;8.90;;
51224;SDS011;37298;42.688;23.312;2023-09-08T04:27:43;15.02;;;8.98;;
51224;SDS011;37298;42.688;23.312;2023-09-08T04:30:11;11.93;;;8.55;;
51224;SDS011;37298;42.688;23.312;2023-09-08T04:32:37;11.43;;;8.10;;
51224;SDS011;37298;42.688;23.312;2023-09-08T04:35:05;13.15;;;8.45;;
51224;SDS011;37298;42.688;23.312;2023-09-08T04:37:32;17.57;;;9.00;;
51224;SDS011;37298;42.688;23.312;2023-09-08T04:39:59;11.95;;;7.97;;
51224;SDS011;37298;42.688;23.312;2023-09-08T04:42:25;12.55;;;8.38;;
51224;SDS011;37298;42.688;23.312;2023-09-08T04:44:51;13.20;;;8.00;;
51224;SDS011;37298;42.688;23.312;2023-09-08T04:47:18;16.17;;;8.57;;
51224;SDS011;37298;42.688;23.312;2023-09-08T04:49:45;11.93;;;8.27;;
51224;SDS011;37298;42.688;23.312;2023-09-08T04:52:12;15.30;;;8.55;;
51224;SDS011;37298;42.688;23.312;2023-09-08T04:54:39;11.93;;;8.30;;
51224;SDS011;37298;42.688;23.312;2023-09-08T04:57:05;12.68;;;8.68;;
51224;SDS011;37298;42.688;23.312;2023-09-08T04:59:31;11.55;;;7.90;;
51224;SDS011;37298;42.688;23.312;2023-09-08T05:01:58;16.90;;;7.47;;
51224;SDS011;37298;42.688;23.312;2023-09-08T05:04:25;16.25;;;8.20;;
51224;SDS011;37298;42.688;23.312;2023-09-08T05:06:51;9.93;;;7.90;;
51224;SDS011;37298;42.688;23.312;2023-09-08T05:09:18;13.13;;;8.00;;
51224;SDS011;37298;42.688;23.312;2023-09-08T05:11:45;12.07;;;8.40;;
51224;SDS011;37298;42.688;23.312;2023-09-08T05:14:11;15.52;;;7.93;;
51224;SDS011;37298;42.688;23.312;2023-09-08T05:16:38;16.88;;;7.50;;
51224;SDS011;37298;42.688;23.312;2023-09-08T05:19:12;13.38;;;7.50;;
51224;SDS011;37298;42.688;23.312;2023-09-08T05:21:38;15.65;;;8.15;;
51224;SDS011;37298;42.688;23.312;2023-09-08T05:24:06;11.18;;;7.82;;
51224;SDS011;37298;42.688;23.312;2023-09-08T05:26:34;10.23;;;7.55;;
51224;SDS011;37298;42.688;23.312;2023-09-08T05:29:00;9.27;;;6.18;;
51224;SDS011;37298;42.688;23.312;2023-09-08T05:31:26;12.07;;;6.85;;
51224;SDS011;37298;42.688;23.312;2023-09-08T05:33:53;9.68;;;5.85;;
51224;SDS011;37298;42.688;23.312;2023-09-08T05:36:19;7.90;;;6.10;;
51224;SDS011;37298;42.688;23.312;2023-09-08T05:38:46;8.38;;;6.35;;
51224;SDS011;37298;42.688;23.312;2023-09-08T05:41:13;11.73;;;6.15;;
51224;SDS011;37298;42.688;23.312;2023-09-08T05:43:40;10.95;;;6.45;;
51224;SDS011;37298;42.688;23.312;2023-09-08T05:46:07;10.52;;;5.32;;
51224;SDS011;37298;42.688;23.312;2023-09-08T05:48:33;12.27;;;5.43;;
51224;SDS011;37298;42.688;23.312;2023-09-08T05:50:59;8.25;;;5.90;;
51224;SDS011;37298;42.688;23.312;2023-09-08T05:53:27;7.15;;;5.50;;
51224;SDS011;37298;42.688;23.312;2023-09-08T05:55:55;12.55;;;6.63;;
51224;SDS011;37298;42.688;23.312;2023-09-08T05:58:21;10.48;;;5.65;;
51224;SDS011;37298;42.688;23.312;2023-09-08T06:00:50;8.82;;;4.93;;
51224;SDS011;37298;42.688;23.312;2023-09-08T06:03:17;9.07;;;5.28;;
51224;SDS011;37298;42.688;23.312;2023-09-08T06:05:43;9.38;;;4.63;;
51224;SDS011;37298;42.688;23.312;2023-09-08T06:08:09;7.75;;;4.60;;
51224;SDS011;37298;42.688;23.312;2023-09-08T06:10:40;9.65;;;5.00;;
51224;SDS011;37298;42.688;23.312;2023-09-08T06:13:06;6.63;;;4.47;;
51224;SDS011;37298;42.688;23.312;2023-09-08T06:15:33;7.75;;;4.25;;
51224;SDS011;37298;42.688;23.312;2023-09-08T06:18:00;7.60;;;4.22;;
51224;SDS011;37298;42.688;23.312;2023-09-08T06:20:26;9.75;;;4.38;;
51224;SDS011;37298;42.688;23.312;2023-09-08T06:22:53;9.88;;;4.53;;
51224;SDS011;37298;42.688;23.312;2023-09-08T06:25:20;9.13;;;4.55;;
51224;SDS011;37298;42.688;23.312;2023-09-08T06:27:46;7.32;;;4.63;;
51224;SDS011;37298;42.688;23.312;2023-09-08T06:30:13;10.05;;;4.15;;
51224;SDS011;37298;42.688;23.312;2023-09-08T06:35:08;5.07;;;3.72;;
51224;SDS011;37298;42.688;23.312;2023-09-08T06:37:36;5.35;;;4.05;;
51224;SDS011;37298;42.688;23.312;2023-09-08T06:40:02;7.38;;;5.03;;
51224;SDS011;37298;42.688;23.312;2023-09-08T06:42:29;5.82;;;3.78;;
51224;SDS011;37298;42.688;23.312;2023-09-08T06:45:06;8.48;;;3.95;;
51224;SDS011;37298;42.688;23.312;2023-09-08T06:47:32;4.45;;;3.35;;
51224;SDS011;37298;42.688;23.312;2023-09-08T06:49:59;7.15;;;3.53;;
51224;SDS011;37298;42.688;23.312;2023-09-08T06:52:26;7.93;;;3.70;;
51224;SDS011;37298;42.688;23.312;2023-09-08T06:54:52;7.10;;;3.90;;
51224;SDS011;37298;42.688;23.312;2023-09-08T06:57:18;7.15;;;4.07;;
51224;SDS011;37298;42.688;23.312;2023-09-08T06:59:45;6.97;;;3.50;;
51224;SDS011;37298;42.688;23.312;2023-09-08T07:02:12;6.75;;;3.40;;
51224;SDS011;37298;42.688;23.312;2023-09-08T07:04:38;5.93;;;3.42;;
51224;SDS011;37298;42.688;23.312;2023-09-08T07:07:04;7.03;;;3.55;;
51224;SDS011;37298;42.688;23.312;2023-09-08T07:09:35;8.40;;;3.20;;
51224;SDS011;37298;42.688;23.312;2023-09-08T07:12:02;6.93;;;3.30;;
51224;SDS011;37298;42.688;23.312;2023-09-08T07:14:30;7.47;;;4.10;;
51224;SDS011;37298;42.688;23.312;2023-09-08T07:16:57;5.97;;;3.47;;
51224;SDS011;37298;42.688;23.312;2023-09-08T07:19:23;10.25;;;3.38;;
51224;SDS011;37298;42.688;23.312;2023-09-08T07:21:49;9.02;;;4.30;;
51224;SDS011;37298;42.688;23.312;2023-09-08T07:24:21;18.27;;;9.48;;
51224;SDS011;37298;42.688;23.312;2023-09-08T07:26:48;4.15;;;3.00;;
51224;SDS011;37298;42.688;23.312;2023-09-08T07:29:14;8.85;;;3.53;;
51224;SDS011;37298;42.688;23.312;2023-09-08T07:31:41;9.23;;;3.72;;
51224;SDS011;37298;42.688;23.312;2023-09-08T07:34:07;5.97;;;3.33;;
51224;SDS011;37298;42.688;23.312;2023-09-08T07:36:35;7.05;;;3.53;;
51224;SDS011;37298;42.688;23.312;2023-09-08T07:39:01;4.85;;;3.58;;
51224;SDS011;37298;42.688;23.312;2023-09-08T07:41:28;8.98;;;3.17;;
51224;SDS011;37298;42.688;23.312;2023-09-08T07:43:55;5.25;;;3.33;;
51224;SDS011;37298;42.688;23.312;2023-09-08T07:46:24;8.27;;;3.67;;
51224;SDS011;37298;42.688;23.312;2023-09-08T07:48:50;5.57;;;2.88;;
51224;SDS011;37298;42.688;23.312;2023-09-08T07:51:16;5.13;;;3.42;;
51224;SDS011;37298;42.688;23.312;2023-09-08T07:53:42;6.70;;;3.70;;
51224;SDS011;37298;42.688;23.312;2023-09-08T07:56:08;4.60;;;2.97;;
51224;SDS011;37298;42.688;23.312;2023-09-08T07:58:34;4.03;;;2.90;;
51224;SDS011;37298;42.688;23.312;2023-09-08T08:01:01;5.63;;;2.90;;
51224;SDS011;37298;42.688;23.312;2023-09-08T08:03:28;6.10;;;3.38;;
51224;SDS011;37298;42.688;23.312;2023-09-08T08:05:55;7.90;;;3.38;;
51224;SDS011;37298;42.688;23.312;2023-09-08T08:08:22;10.07;;;3.40;;
51224;SDS011;37298;42.688;23.312;2023-09-08T08:10:48;6.43;;;3.30;;
51224;SDS011;37298;42.688;23.312;2023-09-08T08:13:14;5.63;;;3.50;;
51224;SDS011;37298;42.688;23.312;2023-09-08T08:15:41;9.23;;;3.42;;
51224;SDS011;37298;42.688;23.312;2023-09-08T08:18:08;7.85;;;3.17;;
51224;SDS011;37298;42.688;23.312;2023-09-08T08:20:35;5.05;;;3.40;;
51224;SDS011;37298;42.688;23.312;2023-09-08T08:23:02;6.43;;;3.95;;
51224;SDS011;37298;42.688;23.312;2023-09-08T08:25:28;5.63;;;3.53;;
51224;SDS011;37298;42.688;23.312;2023-09-08T08:27:54;7.00;;;3.40;;
51224;SDS011;37298;42.688;23.312;2023-09-08T08:30:21;4.28;;;3.20;;
51224;SDS011;37298;42.688;23.312;2023-09-08T08:32:48;4.65;;;3.42;;
51224;SDS011;37298;42.688;23.312;2023-09-08T08:35:17;5.75;;;3.33;;
51224;SDS011;37298;42.688;23.312;2023-09-08T08:37:43;5.38;;;3.40;;
51224;SDS011;37298;42.688;23.312;2023-09-08T08:40:10;4.78;;;3.05;;
51224;SDS011;37298;42.688;23.312;2023-09-08T08:42:37;4.45;;;2.80;;
51224;SDS011;37298;42.688;23.312;2023-09-08T08:45:03;5.07;;;3.55;;
51224;SDS011;37298;42.688;23.312;2023-09-08T08:47:30;6.82;;;2.97;;
51224;SDS011;37298;42.688;23.312;2023-09-08T08:49:57;5.68;;;3.40;;
51224;SDS011;37298;42.688;23.312;2023-09-08T08:52:25;4.80;;;3.22;;
51224;SDS011;37298;42.688;23.312;2023-09-08T08:54:51;3.78;;;2.78;;
51224;SDS011;37298;42.688;23.312;2023-09-08T08:57:17;3.85;;;2.88;;
51224;SDS011;37298;42.688;23.312;2023-09-08T08:59:45;5.22;;;3.30;;
51224;SDS011;37298;42.688;23.312;2023-09-08T09:02:12;3.63;;;3.08;;
51224;SDS011;37298;42.688;23.312;2023-09-08T09:04:39;5.15;;;3.08;;
51224;SDS011;37298;42.688;23.312;2023-09-08T09:07:06;5.78;;;3.03;;
51224;SDS011;37298;42.688;23.312;2023-09-08T09:09:33;4.97;;;3.15;;
51224;SDS011;37298;42.688;23.312;2023-09-08T09:12:00;5.03;;;3.53;;
51224;SDS011;37298;42.688;23.312;2023-09-08T09:14:31;5.22;;;3.08;;
51224;SDS011;37298;42.688;23.312;2023-09-08T09:16:58;5.40;;;3.47;;
51224;SDS011;37298;42.688;23.312;2023-09-08T09:19:25;5.88;;;3.10;;
51224;SDS011;37298;42.688;23.312;2023-09-08T09:21:53;7.20;;;2.80;;
51224;SDS011;37298;42.688;23.312;2023-09-08T09:24:28;7.88;;;3.28;;
51224;SDS011;37298;42.688;23.312;2023-09-08T09:26:55;4.85;;;3.50;;
51224;SDS011;37298;42.688;23.312;2023-09-08T09:29:22;5.97;;;3.28;;
51224;SDS011;37298;42.688;23.312;2023-09-08T09:31:51;5.85;;;3.03;;
51224;SDS011;37298;42.688;23.312;2023-09-08T09:34:18;8.38;;;3.60;;
51224;SDS011;37298;42.688;23.312;2023-09-08T09:36:45;3.60;;;3.15;;
51224;SDS011;37298;42.688;23.312;2023-09-08T09:39:17;4.95;;;3.20;;
51224;SDS011;37298;42.688;23.312;2023-09-08T09:41:44;8.50;;;2.95;;
51224;SDS011;37298;42.688;23.312;2023-09-08T09:44:11;7.22;;;3.10;;
51224;SDS011;37298;42.688;23.312;2023-09-08T09:46:37;6.50;;;3.95;;
51224;SDS011;37298;42.688;23.312;2023-09-08T09:49:04;11.13;;;5.38;;
51224;SDS011;37298;42.688;23.312;2023-09-08T09:51:30;6.00;;;4.40;;
51224;SDS011;37298;42.688;23.312;2023-09-08T09:53:57;7.72;;;3.97;;
51224;SDS011;37298;42.688;23.312;2023-09-08T09:56:24;5.10;;;3.22;;
51224;SDS011;37298;42.688;23.312;2023-09-08T09:58:52;5.78;;;3.53;;
51224;SDS011;37298;42.688;23.312;2023-09-08T10:01:19;7.25;;;3.67;;
51224;SDS011;37298;42.688;23.312;2023-09-08T10:03:45;4.63;;;3.60;;
51224;SDS011;37298;42.688;23.312;2023-09-08T10:06:12;7.45;;;4.03;;
51224;SDS011;37298;42.688;23.312;2023-09-08T10:08:38;7.72;;;3.63;;
51224;SDS011;37298;42.688;23.312;2023-09-08T10:11:06;5.15;;;3.50;;
51224;SDS011;37298;42.688;23.312;2023-09-08T10:13:33;9.68;;;3.70;;
51224;SDS011;37298;42.688;23.312;2023-09-08T10:16:02;6.60;;;3.78;;
51224;SDS011;37298;42.688;23.312;2023-09-08T10:18:29;5.40;;;3.30;;
51224;SDS011;37298;42.688;23.312;2023-09-08T10:20:57;6.03;;;3.85;;
51224;SDS011;37298;42.688;23.312;2023-09-08T10:23:26;4.25;;;3.45;;
51224;SDS011;37298;42.688;23.312;2023-09-08T10:25:55;9.68;;;3.95;;
51224;SDS011;37298;42.688;23.312;2023-09-08T10:28:22;6.82;;;3.97;;
51224;SDS011;37298;42.688;23.312;2023-09-08T10:30:49;6.25;;;2.97;;
51224;SDS011;37298;42.688;23.312;2023-09-08T10:33:16;5.80;;;3.13;;
51224;SDS011;37298;42.688;23.312;2023-09-08T10:35:43;7.65;;;3.78;;
51224;SDS011;37298;42.688;23.312;2023-09-08T10:38:23;9.23;;;4.43;;
51224;SDS011;37298;42.688;23.312;2023-09-08T10:40:49;5.50;;;3.30;;
51224;SDS011;37298;42.688;23.312;2023-09-08T10:43:15;8.20;;;3.60;;
51224;SDS011;37298;42.688;23.312;2023-09-08T10:45:43;8.70;;;3.15;;
51224;SDS011;37298;42.688;23.312;2023-09-08T10:48:09;5.00;;;3.03;;
51224;SDS011;37298;42.688;23.312;2023-09-08T10:50:39;7.80;;;3.50;;
51224;SDS011;37298;42.688;23.312;2023-09-08T10:53:07;5.47;;;4.32;;
51224;SDS011;37298;42.688;23.312;2023-09-08T10:55:36;7.40;;;4.65;;
51224;SDS011;37298;42.688;23.312;2023-09-08T10:58:03;8.45;;;5.25;;
51224;SDS011;37298;42.688;23.312;2023-09-08T11:00:42;8.37;;;3.57;;
51224;SDS011;37298;42.688;23.312;2023-09-08T11:03:09;8.40;;;4.38;;
51224;SDS011;37298;42.688;23.312;2023-09-08T11:05:35;7.18;;;3.28;;
51224;SDS011;37298;42.688;23.312;2023-09-08T11:08:01;8.13;;;3.80;;
51224;SDS011;37298;42.688;23.312;2023-09-08T11:10:30;6.70;;;3.00;;
51224;SDS011;37298;42.688;23.312;2023-09-08T11:12:56;13.55;;;3.55;;
51224;SDS011;37298;42.688;23.312;2023-09-08T11:15:22;4.35;;;3.28;;
51224;SDS011;37298;42.688;23.312;2023-09-08T11:17:49;5.05;;;3.40;;
51224;SDS011;37298;42.688;23.312;2023-09-08T11:20:16;4.95;;;3.45;;
51224;SDS011;37298;42.688;23.312;2023-09-08T11:22:51;7.13;;;3.40;;
51224;SDS011;37298;42.688;23.312;2023-09-08T11:25:18;4.80;;;3.25;;
51224;SDS011;37298;42.688;23.312;2023-09-08T11:27:46;6.72;;;3.67;;
51224;SDS011;37298;42.688;23.312;2023-09-08T11:30:15;8.00;;;3.60;;
51224;SDS011;37298;42.688;23.312;2023-09-08T11:32:42;5.70;;;3.58;;
51224;SDS011;37298;42.688;23.312;2023-09-08T11:35:09;5.53;;;3.45;;
51224;SDS011;37298;42.688;23.312;2023-09-08T11:37:36;7.80;;;3.40;;
51224;SDS011;37298;42.688;23.312;2023-09-08T11:40:04;11.00;;;4.05;;
51224;SDS011;37298;42.688;23.312;2023-09-08T11:42:34;10.23;;;3.38;;
51224;SDS011;37298;42.688;23.312;2023-09-08T11:45:01;6.60;;;3.42;;
51224;SDS011;37298;42.688;23.312;2023-09-08T11:47:29;5.18;;;3.40;;
51224;SDS011;37298;42.688;23.312;2023-09-08T11:49:56;4.00;;;3.03;;
51224;SDS011;37298;42.688;23.312;2023-09-08T11:52:23;5.07;;;2.83;;
51224;SDS011;37298;42.688;23.312;2023-09-08T11:54:49;8.38;;;3.15;;
51224;SDS011;37298;42.688;23.312;2023-09-08T11:57:16;6.70;;;2.97;;
51224;SDS011;37298;42.688;23.312;2023-09-08T11:59:42;5.43;;;3.20;;
51224;SDS011;37298;42.688;23.312;2023-09-08T12:02:11;7.32;;;3.70;;
51224;SDS011;37298;42.688;23.312;2023-09-08T12:04:38;5.35;;;2.90;;
51224;SDS011;37298;42.688;23.312;2023-09-08T12:07:06;5.38;;;2.85;;
51224;SDS011;37298;42.688;23.312;2023-09-08T12:09:32;7.32;;;2.95;;
51224;SDS011;37298;42.688;23.312;2023-09-08T12:11:58;5.22;;;3.20;;
51224;SDS011;37298;42.688;23.312;2023-09-08T12:14:27;7.35;;;3.40;;
51224;SDS011;37298;42.688;23.312;2023-09-08T12:17:04;5.82;;;2.67;;
51224;SDS011;37298;42.688;23.312;2023-09-08T12:19:33;6.88;;;3.50;;
51224;SDS011;37298;42.688;23.312;2023-09-08T12:22:02;11.13;;;4.13;;
51224;SDS011;37298;42.688;23.312;2023-09-08T12:24:47;5.53;;;3.35;;
51224;SDS011;37298;42.688;23.312;2023-09-08T12:27:14;6.28;;;3.40;;
51224;SDS011;37298;42.688;23.312;2023-09-08T12:29:40;7.50;;;3.53;;
51224;SDS011;37298;42.688;23.312;2023-09-08T12:32:06;5.13;;;3.25;;
51224;SDS011;37298;42.688;23.312;2023-09-08T12:34:34;4.20;;;3.00;;
51224;SDS011;37298;42.688;23.312;2023-09-08T12:37:00;4.47;;;3.05;;
51224;SDS011;37298;42.688;23.312;2023-09-08T12:39:26;4.90;;;3.15;;
51224;SDS011;37298;42.688;23.312;2023-09-08T12:41:53;4.25;;;2.83;;
51224;SDS011;37298;42.688;23.312;2023-09-08T12:44:19;5.18;;;3.05;;
51224;SDS011;37298;42.688;23.312;2023-09-08T12:46:46;6.07;;;2.95;;
51224;SDS011;37298;42.688;23.312;2023-09-08T12:49:12;9.18;;;2.97;;
51224;SDS011;37298;42.688;23.312;2023-09-08T12:51:39;5.45;;;3.17;;
51224;SDS011;37298;42.688;23.312;2023-09-08T12:54:05;5.07;;;2.83;;
51224;SDS011;37298;42.688;23.312;2023-09-08T12:56:31;4.07;;;2.80;;
51224;SDS011;37298;42.688;23.312;2023-09-08T12:58:57;7.00;;;3.08;;
51224;SDS011;37298;42.688;23.312;2023-09-08T13:01:24;5.35;;;3.42;;
51224;SDS011;37298;42.688;23.312;2023-09-08T13:03:50;4.95;;;3.58;;
51224;SDS011;37298;42.688;23.312;2023-09-08T13:06:16;11.77;;;4.55;;
51224;SDS011;37298;42.688;23.312;2023-09-08T13:08:43;5.65;;;3.35;;
51224;SDS011;37298;42.688;23.312;2023-09-08T13:11:09;5.32;;;3.30;;
51224;SDS011;37298;42.688;23.312;2023-09-08T13:13:36;6.32;;;3.30;;
51224;SDS011;37298;42.688;23.312;2023-09-08T13:16:02;6.00;;;3.72;;
51224;SDS011;37298;42.688;23.312;2023-09-08T13:18:29;12.55;;;3.58;;
51224;SDS011;37298;42.688;23.312;2023-09-08T13:21:00;8.70;;;3.13;;
51224;SDS011;37298;42.688;23.312;2023-09-08T13:23:28;6.20;;;3.00;;
51224;SDS011;37298;42.688;23.312;2023-09-08T13:25:55;5.43;;;3.30;;
51224;SDS011;37298;42.688;23.312;2023-09-08T13:28:21;6.82;;;3.40;;
51224;SDS011;37298;42.688;23.312;2023-09-08T13:30:47;5.80;;;3.30;;
51224;SDS011;37298;42.688;23.312;2023-09-08T13:33:13;5.25;;;3.95;;
51224;SDS011;37298;42.688;23.312;2023-09-08T13:35:40;5.57;;;3.17;;
51224;SDS011;37298;42.688;23.312;2023-09-08T13:38:06;9.43;;;6.15;;
51224;SDS011;37298;42.688;23.312;2023-09-08T13:40:32;7.80;;;4.30;;
51224;SDS011;37298;42.688;23.312;2023-09-08T13:42:59;8.75;;;3.70;;
51224;SDS011;37298;42.688;23.312;2023-09-08T13:45:26;4.18;;;3.05;;
51224;SDS011;37298;42.688;23.312;2023-09-08T13:47:52;4.90;;;3.20;;
51224;SDS011;37298;42.688;23.312;2023-09-08T13:50:18;10.25;;;3.40;;
51224;SDS011;37298;42.688;23.312;2023-09-08T13:52:45;4.55;;;3.22;;
51224;SDS011;37298;42.688;23.312;2023-09-08T13:55:11;6.10;;;3.28;;
51224;SDS011;37298;42.688;23.312;2023-09-08T13:57:37;6.10;;;3.20;;
51224;SDS011;37298;42.688;23.312;2023-09-08T14:00:05;5.75;;;3.22;;
51224;SDS011;37298;42.688;23.312;2023-09-08T14:02:35;5.40;;;3.30;;
51224;SDS011;37298;42.688;23.312;2023-09-08T14:05:02;5.55;;;3.10;;
51224;SDS011;37298;42.688;23.312;2023-09-08T14:07:28;3.33;;;2.92;;
51224;SDS011;37298;42.688;23.312;2023-09-08T14:09:54;5.55;;;2.80;;
51224;SDS011;37298;42.688;23.312;2023-09-08T14:12:20;6.32;;;3.30;;
51224;SDS011;37298;42.688;23.312;2023-09-08T14:14:47;5.35;;;3.17;;
51224;SDS011;37298;42.688;23.312;2023-09-08T14:17:14;7.90;;;3.17;;
51224;SDS011;37298;42.688;23.312;2023-09-08T14:19:40;9.75;;;3.15;;
51224;SDS011;37298;42.688;23.312;2023-09-08T14:22:06;5.25;;;3.08;;
51224;SDS011;37298;42.688;23.312;2023-09-08T14:24:33;4.63;;;3.20;;
51224;SDS011;37298;42.688;23.312;2023-09-08T14:26:59;5.25;;;3.45;;
51224;SDS011;37298;42.688;23.312;2023-09-08T14:29:25;9.57;;;3.50;;
51224;SDS011;37298;42.688;23.312;2023-09-08T14:31:51;5.65;;;3.72;;